createdAt,value
2019-04-07T00:02:23.417Z,44.50
2019-04-07T00:04:53.513Z,44.23
2019-04-07T00:07:26.301Z,46.00
2019-04-07T00:09:57.429Z,45.13
2019-04-07T00:12:27.738Z,43.83
2019-04-07T00:14:59.916Z,46.07
2019-04-07T00:17:31.427Z,44.77
2019-04-07T00:20:01.609Z,48.87
2019-04-07T00:22:31.676Z,48.33
2019-04-07T00:25:01.907Z,51.57
2019-04-07T00:27:33.980Z,51.50
2019-04-07T00:30:07.593Z,50.20
2019-04-07T00:32:37.255Z,44.77
2019-04-07T00:35:08.811Z,43.37
2019-04-07T00:37:39.389Z,42.80
2019-04-07T00:40:09.604Z,40.13
2019-04-07T00:42:39.374Z,41.97
2019-04-07T00:45:09.773Z,39.70
2019-04-07T00:47:39.564Z,41.93
2019-04-07T00:50:16.931Z,40.33
2019-04-07T00:52:49.161Z,40.50
2019-04-07T00:55:19.327Z,38.87
2019-04-07T00:57:49.074Z,40.97
2019-04-07T01:00:22.288Z,41.77
2019-04-07T01:02:52.244Z,37.77
2019-04-07T01:05:34.746Z,40.40
2019-04-07T01:07:54.183Z,44.30
2019-04-07T01:10:24.226Z,41.33
2019-04-07T01:12:54.098Z,39.33
2019-04-07T01:15:24.096Z,45.57
2019-04-07T01:17:54.503Z,38.60
2019-04-07T01:20:24.362Z,39.43
2019-04-07T01:22:54.142Z,37.03
2019-04-07T01:25:24.204Z,40.63
2019-04-07T01:27:54.443Z,41.33
2019-04-07T01:30:26.075Z,38.60
2019-04-07T01:32:58.033Z,37.37
2019-04-07T01:35:27.653Z,38.93
2019-04-07T01:37:57.267Z,37.63
2019-04-07T01:40:26.927Z,41.53
2019-04-07T01:43:04.323Z,37.37
2019-04-07T01:45:52.507Z,40.17
2019-04-07T01:48:41.105Z,40.30
2019-04-07T01:51:27.405Z,38.20
2019-04-07T01:54:19.357Z,39.63
2019-04-07T01:57:08.261Z,36.87
2019-04-07T01:59:47.564Z,37.33
2019-04-07T02:02:35.737Z,38.10
2019-04-07T02:05:26.292Z,37.60
2019-04-07T02:08:14.536Z,39.20
2019-04-07T02:11:06.245Z,37.97
2019-04-07T02:13:55.819Z,39.80
2019-04-07T02:16:51.210Z,36.37
2019-04-07T02:19:46.005Z,34.30
2019-04-07T02:22:41.950Z,38.77
2019-04-07T02:25:25.160Z,38.60
2019-04-07T02:28:06.446Z,37.33
2019-04-07T02:31:04.289Z,38.03
2019-04-07T02:33:45.742Z,35.67
2019-04-07T02:36:31.361Z,40.20
2019-04-07T02:39:07.820Z,37.70
2019-04-07T02:41:57.103Z,37.80
2019-04-07T02:44:52.566Z,39.40
2019-04-07T02:47:44.779Z,37.03
2019-04-07T02:50:47.669Z,36.87
2019-04-07T02:53:45.547Z,37.30
2019-04-07T02:56:30.071Z,36.60
2019-04-07T02:59:10.063Z,35.70
2019-04-07T03:01:55.770Z,36.43
2019-04-07T03:04:37.160Z,35.97
2019-04-07T03:07:23.826Z,37.20
2019-04-07T03:10:10.873Z,33.67
2019-04-07T03:13:06.096Z,35.90
2019-04-07T03:16:00.517Z,35.33
2019-04-07T03:18:54.764Z,37.67
2019-04-07T03:21:38.179Z,38.13
2019-04-07T03:24:36.882Z,34.20
2019-04-07T03:27:25.871Z,36.13
2019-04-07T03:30:03.837Z,35.80
2019-04-07T03:32:54.440Z,35.73
2019-04-07T03:35:53.051Z,35.70
2019-04-07T03:38:39.378Z,36.67
2019-04-07T03:41:21.762Z,35.73
2019-04-07T03:43:57.082Z,36.80
2019-04-07T03:46:35.134Z,36.97
2019-04-07T03:49:17.579Z,34.97
2019-04-07T03:52:07.271Z,37.17
2019-04-07T03:55:01.957Z,38.20
2019-04-07T03:57:57.306Z,38.70
2019-04-07T04:01:33.645Z,40.93
2019-04-07T04:04:10.830Z,41.13
2019-04-07T04:06:58.347Z,38.43
2019-04-07T04:09:42.898Z,37.23
2019-04-07T04:12:23.168Z,37.10
2019-04-07T04:15:15.664Z,37.90
2019-04-07T04:17:45.727Z,36.87
2019-04-07T04:20:16.131Z,38.23
2019-04-07T04:22:46.475Z,37.93
2019-04-07T04:25:17.729Z,39.33
2019-04-07T04:27:48.526Z,40.07
2019-04-07T04:30:18.962Z,42.00
2019-04-07T04:32:49.622Z,39.23
2019-04-07T04:35:20.087Z,39.60
2019-04-07T04:37:52.383Z,40.20
2019-04-07T04:40:22.258Z,41.33
2019-04-07T04:42:52.329Z,38.27
2019-04-07T04:45:22.374Z,40.40
2019-04-07T04:47:53.683Z,38.27
2019-04-07T04:50:23.910Z,40.67
2019-04-07T04:52:55.153Z,39.40
2019-04-07T04:55:25.487Z,40.13
2019-04-07T04:57:55.360Z,39.10
2019-04-07T05:00:25.147Z,42.00
2019-04-07T05:02:54.843Z,39.90
2019-04-07T05:05:24.477Z,45.20
2019-04-07T05:08:00.708Z,41.23
2019-04-07T05:10:26.581Z,40.93
2019-04-07T05:12:57.222Z,42.23
2019-04-07T05:15:27.557Z,38.83
2019-04-07T05:17:58.176Z,39.73
2019-04-07T05:20:29.316Z,41.37
2019-04-07T05:22:59.834Z,41.43
2019-04-07T05:25:30.201Z,41.23
2019-04-07T05:28:00.036Z,42.37
2019-04-07T05:30:29.819Z,39.73
2019-04-07T05:32:59.610Z,40.77
2019-04-07T05:35:29.782Z,41.83
2019-04-07T05:38:04.088Z,39.90
2019-04-07T05:40:32.680Z,41.13
2019-04-07T05:43:02.969Z,39.40
2019-04-07T05:45:35.520Z,38.90
2019-04-07T05:48:05.453Z,40.23
2019-04-07T05:50:36.027Z,42.43
2019-04-07T05:53:12.146Z,40.90
2019-04-07T05:55:39.349Z,39.37
2019-04-07T05:58:10.430Z,40.30
2019-04-07T06:00:43.690Z,39.20
2019-04-07T06:03:13.242Z,38.20
2019-04-07T06:05:45.309Z,38.57
2019-04-07T06:08:26.030Z,40.97
2019-04-07T06:10:46.272Z,38.37
2019-04-07T06:13:17.469Z,40.20
2019-04-07T06:15:49.353Z,37.37
2019-04-07T06:18:22.875Z,37.53
2019-04-07T06:20:53.761Z,37.87
2019-04-07T06:23:25.820Z,41.03
2019-04-07T06:25:57.313Z,37.30
2019-04-07T06:28:26.928Z,36.37
2019-04-07T06:30:59.388Z,37.97
2019-04-07T06:33:28.548Z,36.47
2019-04-07T06:35:59.547Z,38.10
2019-04-07T06:38:34.603Z,36.00
2019-04-07T06:41:03.067Z,36.23
2019-04-07T06:43:35.193Z,35.47
2019-04-07T06:46:26.047Z,37.67
2019-04-07T06:49:13.773Z,37.47
2019-04-07T06:52:15.142Z,36.67
2019-04-07T06:55:10.816Z,36.33
2019-04-07T06:57:59.204Z,34.93
2019-04-07T07:00:55.942Z,35.23
2019-04-07T07:03:48.587Z,34.53
2019-04-07T07:06:34.085Z,34.87
2019-04-07T07:09:28.952Z,35.07
2019-04-07T07:12:31.299Z,31.00
2019-04-07T07:15:15.373Z,33.63
2019-04-07T07:17:59.310Z,31.87
2019-04-07T07:20:45.151Z,34.80
2019-04-07T07:23:23.137Z,35.10
2019-04-07T07:25:53.106Z,32.63
2019-04-07T07:28:23.677Z,31.60
2019-04-07T07:30:55.726Z,34.83
2019-04-07T07:33:25.579Z,30.57
2019-04-07T07:35:55.348Z,31.77
2019-04-07T07:38:26.999Z,32.13
2019-04-07T07:40:56.957Z,29.87
2019-04-07T07:43:29.221Z,28.63
2019-04-07T07:45:59.997Z,30.80
2019-04-07T07:48:31.369Z,28.53
2019-04-07T07:51:06.865Z,28.00
2019-04-07T07:53:36.203Z,28.80
2019-04-07T07:56:10.596Z,28.70
2019-04-07T07:58:38.476Z,28.97
2019-04-07T08:01:11.300Z,29.47
2019-04-07T08:03:40.449Z,27.90
2019-04-07T08:06:10.891Z,27.90
2019-04-07T08:08:40.908Z,28.13
2019-04-07T08:11:11.227Z,27.17
2019-04-07T08:13:44.694Z,28.10
2019-04-07T08:16:12.665Z,29.53
2019-04-07T08:18:45.270Z,28.73
2019-04-07T08:21:17.134Z,25.80
2019-04-07T08:23:47.073Z,26.63
2019-04-07T08:26:18.285Z,26.53
2019-04-07T08:28:49.337Z,26.50
2019-04-07T08:31:21.420Z,27.00
2019-04-07T08:33:51.847Z,29.10
2019-04-07T08:36:22.730Z,28.53
2019-04-07T08:38:55.742Z,28.17
2019-04-07T08:41:24.524Z,25.97
2019-04-07T08:43:57.525Z,27.30
2019-04-07T08:46:35.230Z,25.67
2019-04-07T08:49:04.177Z,25.93
2019-04-07T08:51:40.434Z,26.07
2019-04-07T08:54:11.709Z,26.03
2019-04-07T08:56:42.107Z,25.63
2019-04-07T08:59:16.180Z,24.53
2019-04-07T09:01:44.677Z,25.43
2019-04-07T09:04:16.529Z,24.70
2019-04-07T09:06:47.750Z,23.60
2019-04-07T09:09:17.685Z,25.87
2019-04-07T09:11:48.034Z,25.67
2019-04-07T09:14:20.391Z,26.10
2019-04-07T09:17:30.981Z,26.67
2019-04-07T09:20:08.494Z,25.30
2019-04-07T09:22:44.166Z,25.33
2019-04-07T09:25:33.101Z,24.73
2019-04-07T09:28:25.012Z,24.73
2019-04-07T09:31:14.606Z,25.13
2019-04-07T09:34:01.457Z,26.50
2019-04-07T09:36:42.941Z,25.00
2019-04-07T09:39:20.831Z,25.07
2019-04-07T09:42:09.103Z,24.77
2019-04-07T09:44:46.794Z,24.20
2019-04-07T09:47:26.859Z,24.43
2019-04-07T09:50:31.280Z,21.83
2019-04-07T09:53:38.949Z,19.77
2019-04-07T09:56:44.025Z,19.13
2019-04-07T09:59:39.652Z,17.03
2019-04-07T10:02:34.159Z,20.47
2019-04-07T10:05:24.106Z,18.57
2019-04-07T10:08:19.528Z,14.80
2019-04-07T10:11:01.123Z,13.00
2019-04-07T10:14:02.334Z,12.50
2019-04-07T10:16:54.282Z,15.03
2019-04-07T10:19:42.628Z,13.13
2019-04-07T10:22:26.662Z,11.37
2019-04-07T10:25:15.545Z,13.00
2019-04-07T10:28:13.743Z,12.87
2019-04-07T10:31:02.328Z,13.00
2019-04-07T10:33:52.632Z,12.60
2019-04-07T10:36:40.847Z,13.73
2019-04-07T10:39:41.599Z,13.23
2019-04-07T10:42:43.736Z,12.37
2019-04-07T10:45:24.947Z,12.40
2019-04-07T10:48:24.370Z,12.20
2019-04-07T10:51:20.045Z,11.33
2019-04-07T10:54:22.205Z,11.67
2019-04-07T10:57:11.117Z,10.30
2019-04-07T10:59:49.405Z,10.70
2019-04-07T11:02:29.678Z,12.20
2019-04-07T11:05:22.816Z,10.90
2019-04-07T11:08:11.640Z,11.30
2019-04-07T11:11:10.772Z,11.47
2019-04-07T11:13:49.992Z,11.23
2019-04-07T11:16:33.738Z,12.37
2019-04-07T11:19:20.083Z,11.70
2019-04-07T11:22:00.834Z,13.70
2019-04-07T11:24:59.455Z,11.87
2019-04-07T11:27:47.312Z,11.50
2019-04-07T11:30:39.905Z,12.27
2019-04-07T11:33:28.015Z,12.23
2019-04-07T11:36:21.658Z,14.53
2019-04-07T11:39:10.032Z,11.90
2019-04-07T11:41:52.714Z,12.13
2019-04-07T11:44:45.595Z,13.10
2019-04-07T11:47:22.098Z,12.27
2019-04-07T11:50:05.820Z,11.33
2019-04-07T11:52:56.270Z,12.13
2019-04-07T11:55:36.739Z,13.43
2019-04-07T11:58:35.848Z,12.73
2019-04-07T12:01:18.776Z,10.77
2019-04-07T12:04:07.834Z,12.37
2019-04-07T12:06:51.549Z,13.50
2019-04-07T12:09:56.308Z,11.47
2019-04-07T12:12:59.201Z,12.10
2019-04-07T12:15:51.203Z,11.27
2019-04-07T12:18:39.628Z,11.63
2019-04-07T12:21:39.130Z,12.37
2019-04-07T12:24:41.267Z,11.87
2019-04-07T12:27:29.025Z,11.83
2019-04-07T12:30:23.237Z,10.40
2019-04-07T12:33:13.552Z,10.83
2019-04-07T12:36:03.278Z,11.37
2019-04-07T12:38:46.508Z,12.03
2019-04-07T12:41:41.580Z,11.07
2019-04-07T12:44:30.814Z,12.33
2019-04-07T12:47:19.873Z,11.67
2019-04-07T12:49:57.368Z,11.47
2019-04-07T12:52:42.128Z,13.27
2019-04-07T12:55:30.427Z,11.10
2019-04-07T12:58:17.694Z,11.63
2019-04-07T13:01:12.758Z,9.57
2019-04-07T13:03:55.776Z,11.07
2019-04-07T13:06:56.742Z,10.30
2019-04-07T13:09:41.879Z,11.33
2019-04-07T13:12:44.353Z,10.60
2019-04-07T13:15:33.629Z,10.00
2019-04-07T13:18:19.928Z,9.50
2019-04-07T13:21:11.448Z,10.73
2019-04-07T13:23:56.018Z,10.77
2019-04-07T13:26:37.417Z,11.30
2019-04-07T13:29:22.622Z,11.00
2019-04-07T13:32:23.881Z,11.03
2019-04-07T13:35:13.867Z,10.07
2019-04-07T13:38:13.536Z,11.20
2019-04-07T13:41:01.853Z,10.30
2019-04-07T13:44:07.658Z,10.90
2019-04-07T13:46:47.897Z,11.37
2019-04-07T13:49:45.841Z,9.80
2019-04-07T13:52:39.662Z,10.07
2019-04-07T13:55:20.591Z,11.30
2019-04-07T13:58:10.839Z,10.57
2019-04-07T14:00:55.813Z,10.80
2019-04-07T14:03:48.202Z,10.83
2019-04-07T14:06:44.918Z,11.00
2019-04-07T14:09:41.681Z,9.47
2019-04-07T14:12:19.020Z,10.53
2019-04-07T14:15:03.823Z,11.77
2019-04-07T14:18:02.515Z,10.37
2019-04-07T14:20:52.944Z,11.30
2019-04-07T14:23:41.036Z,10.67
2019-04-07T14:26:33.522Z,9.83
2019-04-07T14:29:21.995Z,9.97
2019-04-07T14:32:14.211Z,10.53
2019-04-07T14:35:08.209Z,9.87
2019-04-07T14:38:11.156Z,10.33
2019-04-07T14:40:58.124Z,11.10
2019-04-07T14:43:50.739Z,10.30
2019-04-07T14:46:28.497Z,10.17
2019-04-07T14:49:15.949Z,11.23
2019-04-07T14:52:07.649Z,9.57
2019-04-07T14:54:56.987Z,10.53
2019-04-07T14:57:42.337Z,10.53
2019-04-07T15:00:47.445Z,10.40
2019-04-07T15:03:20.296Z,10.87
2019-04-07T15:05:55.138Z,11.63
2019-04-07T15:08:36.653Z,10.30
2019-04-07T15:11:16.744Z,10.57
2019-04-07T15:13:47.701Z,10.63
2019-04-07T15:16:21.636Z,11.30
2019-04-07T15:18:55.122Z,11.47
2019-04-07T15:21:25.392Z,11.20
2019-04-07T15:23:57.048Z,10.70
2019-04-07T15:26:28.179Z,10.90
2019-04-07T15:29:02.408Z,11.33
2019-04-07T15:31:33.088Z,9.80
2019-04-07T15:34:06.394Z,10.10
2019-04-07T15:36:35.110Z,11.30
2019-04-07T15:39:09.983Z,11.40
2019-04-07T15:41:43.936Z,10.57
2019-04-07T15:44:14.429Z,11.63
2019-04-07T15:46:49.073Z,12.20
2019-04-07T15:49:18.404Z,11.27
2019-04-07T15:51:48.760Z,10.70
2019-04-07T15:54:22.341Z,11.07
2019-04-07T15:57:00.011Z,10.73
2019-04-07T15:59:30.581Z,11.10
2019-04-07T16:02:01.296Z,10.53
2019-04-07T16:04:31.967Z,10.50
2019-04-07T16:07:02.401Z,10.73
2019-04-07T16:09:40.339Z,15.47
2019-04-07T16:12:06.364Z,10.50
2019-04-07T16:14:37.380Z,11.10
2019-04-07T16:17:10.530Z,10.60
2019-04-07T16:19:45.349Z,10.73
2019-04-07T16:22:16.859Z,10.17
2019-04-07T16:24:47.526Z,11.60
2019-04-07T16:27:17.322Z,10.70
2019-04-07T16:29:48.597Z,10.90
2019-04-07T16:32:19.636Z,11.40
2019-04-07T16:35:08.446Z,11.57
2019-04-07T16:37:40.886Z,11.73
2019-04-07T16:40:13.934Z,13.70
2019-04-07T16:43:13.368Z,14.23
2019-04-07T16:45:44.075Z,14.20
2019-04-07T16:48:14.024Z,14.90
2019-04-07T16:51:04.278Z,15.60
2019-04-07T16:53:42.805Z,15.73
2019-04-07T16:56:32.347Z,17.50
2019-04-07T16:59:10.524Z,14.80
2019-04-07T17:02:14.430Z,16.90
2019-04-07T17:05:05.790Z,17.50
2019-04-07T17:07:44.410Z,14.93
2019-04-07T17:10:28.483Z,15.20
2019-04-07T17:13:09.240Z,15.20
2019-04-07T17:15:40.305Z,13.17
2019-04-07T17:18:47.924Z,13.77
2019-04-07T17:21:22.847Z,14.67
2019-04-07T17:23:55.370Z,13.53
2019-04-07T17:26:39.140Z,13.90
2019-04-07T17:29:23.426Z,13.20
2019-04-07T17:31:54.442Z,13.90
2019-04-07T17:34:26.168Z,13.00
2019-04-07T17:36:57.663Z,13.43
2019-04-07T17:39:48.221Z,12.70
2019-04-07T17:42:25.888Z,13.70
2019-04-07T17:45:22.211Z,12.73
2019-04-07T17:48:09.804Z,13.67
2019-04-07T17:50:53.127Z,13.70
2019-04-07T17:53:58.220Z,15.30
2019-04-07T17:56:43.782Z,13.73
2019-04-07T17:59:52.214Z,13.00
2019-04-07T18:02:38.600Z,14.00
2019-04-07T18:05:25.239Z,15.13
2019-04-07T18:08:12.114Z,13.53
2019-04-07T18:11:02.335Z,13.90
2019-04-07T18:13:56.577Z,14.17
2019-04-07T18:17:01.235Z,14.50
2019-04-07T18:19:25.181Z,14.43
2019-04-07T18:22:19.831Z,12.77
2019-04-07T18:25:15.077Z,14.47
2019-04-07T18:27:57.224Z,14.67
2019-04-07T18:30:50.376Z,14.07
2019-04-07T18:33:51.525Z,13.83
2019-04-07T18:36:36.706Z,13.23
2019-04-07T18:39:44.995Z,15.80
2019-04-07T18:42:46.810Z,14.13
2019-04-07T18:45:45.884Z,13.80
2019-04-07T18:48:28.910Z,14.70
2019-04-07T18:51:54.773Z,14.80
2019-04-07T18:54:43.353Z,14.27
2019-04-07T18:57:46.945Z,14.83
2019-04-07T19:03:53.349Z,14.53
2019-04-07T19:06:52.668Z,13.10
2019-04-07T19:09:43.248Z,16.43
2019-04-07T19:12:37.346Z,14.53
2019-04-07T19:15:49.519Z,14.13
2019-04-07T19:18:52.281Z,15.33
2019-04-07T19:25:05.158Z,13.97
2019-04-07T19:28:20.236Z,13.90
2019-04-07T19:31:21.617Z,17.33
2019-04-07T19:41:43.274Z,13.63
2019-04-07T19:44:51.075Z,12.37
2019-04-07T19:47:44.491Z,12.90
2019-04-07T19:51:03.840Z,14.40
2019-04-07T19:54:32.172Z,12.47
2019-04-07T20:01:08.735Z,13.90
2019-04-07T20:04:14.238Z,13.10
2019-04-07T20:07:18.769Z,17.63
2019-04-07T20:10:21.509Z,12.17
2019-04-07T20:12:56.274Z,11.70
2019-04-07T20:16:02.488Z,12.90
2019-04-07T20:19:16.720Z,11.93
2019-04-07T20:21:55.138Z,11.50
2019-04-07T20:24:54.510Z,12.30
2019-04-07T20:27:37.009Z,11.13
2019-04-07T20:30:35.507Z,11.63
2019-04-07T20:33:29.896Z,13.60
2019-04-07T20:36:15.036Z,12.57
2019-04-07T20:38:49.955Z,14.17
2019-04-07T20:41:45.777Z,11.07
2019-04-07T20:44:36.818Z,11.23
2019-04-07T20:47:21.180Z,12.23
2019-04-07T20:49:58.878Z,11.67
2019-04-07T20:53:10.096Z,11.63
2019-04-07T20:55:39.960Z,12.20
2019-04-07T20:58:23.967Z,12.73
2019-04-07T21:01:22.642Z,11.20
2019-04-07T21:04:10.660Z,11.63
2019-04-07T21:07:11.582Z,11.67
2019-04-07T21:10:09.553Z,11.30
2019-04-07T21:12:48.613Z,12.10
2019-04-07T21:15:57.356Z,12.57
2019-04-07T21:18:45.765Z,13.13
2019-04-07T21:21:41.666Z,12.87
2019-04-07T21:24:19.956Z,13.90
2019-04-07T21:26:59.363Z,14.07
2019-04-07T21:29:34.310Z,14.27
2019-04-07T21:32:12.134Z,13.30
2019-04-07T21:35:17.111Z,14.23
2019-04-07T21:37:56.259Z,13.50
2019-04-07T21:40:46.281Z,15.10
2019-04-07T21:43:29.364Z,14.07
2019-04-07T21:46:23.584Z,15.40
2019-04-07T21:49:19.455Z,14.60
2019-04-07T21:52:00.255Z,15.00
2019-04-07T21:55:00.801Z,15.83
2019-04-07T21:57:56.733Z,14.60
2019-04-07T22:00:45.435Z,15.40
2019-04-07T22:03:45.494Z,14.63
2019-04-07T22:06:34.174Z,15.00
2019-04-07T22:09:27.204Z,15.60
2019-04-07T22:11:58.003Z,14.37
2019-04-07T22:14:28.613Z,16.23
2019-04-07T22:17:00.427Z,15.57
2019-04-07T22:19:29.772Z,15.40
2019-04-07T22:22:00.352Z,15.23
2019-04-07T22:24:33.252Z,16.00
2019-04-07T22:27:05.343Z,14.67
2019-04-07T22:29:35.926Z,15.90
2019-04-07T22:32:06.018Z,16.07
2019-04-07T22:34:35.759Z,16.50
2019-04-07T22:37:05.542Z,16.63
2019-04-07T22:39:35.260Z,15.63
2019-04-07T22:42:05.177Z,17.07
2019-04-07T22:44:36.048Z,17.27
2019-04-07T22:47:05.794Z,17.17
2019-04-07T22:49:35.946Z,17.93
2019-04-07T22:52:06.022Z,17.03
2019-04-07T22:54:38.904Z,17.67
2019-04-07T22:57:13.114Z,17.33
2019-04-07T22:59:41.808Z,17.07
2019-04-07T23:02:12.539Z,17.47
2019-04-07T23:04:42.656Z,19.23
2019-04-07T23:07:12.474Z,16.77
2019-04-07T23:09:42.399Z,17.30
2019-04-07T23:12:12.658Z,19.80
2019-04-07T23:14:42.621Z,18.50
2019-04-07T23:17:13.066Z,17.63
2019-04-07T23:19:42.989Z,17.37
2019-04-07T23:22:14.130Z,19.50
2019-04-07T23:24:44.176Z,17.80
2019-04-07T23:27:14.554Z,17.80
2019-04-07T23:29:44.458Z,19.17
2019-04-07T23:32:14.173Z,17.20
2019-04-07T23:34:43.813Z,17.83
2019-04-07T23:37:14.465Z,18.30
2019-04-07T23:39:44.504Z,19.03
2019-04-07T23:42:14.541Z,18.60
2019-04-07T23:44:44.528Z,19.20
2019-04-07T23:47:15.260Z,18.03
2019-04-07T23:49:48.929Z,18.80
2019-04-07T23:52:18.887Z,18.57
2019-04-07T23:54:50.346Z,21.43
2019-04-07T23:57:21.905Z,18.27
2019-04-07T23:59:51.684Z,18.47
